Main page
METAR-TAF:

METAR-TAF

Airports :

Dundee, Scotland

Dundee Airport

latitude: 56-27N, longitude: 003-01W, elevation: 4 m

Current weather observation

The report was made 11 minutes ago, at 11:50 UTC
Wind 6 kt from the West/Southwest
Temperature 6°C
Humidity 93%
Pressure 1006 hPa
Visibility: 5000 m
Broken clouds at a height of 200 ft
light drizzle, mist

METAR: EGPN 201150Z 25006KT 5000 -DZ BR BKN002 06/05 Q1006

Time: 12:01 (12:01 UTC)

Forecast

The report was made 1 hour and 8 minutes ago, at 10:53 UTC
Forecast valid from 20 at 12 UTC to 20 at 21 UTC
Wind 7 kt from the Northeast
Visibility 10 km or more
Scattered clouds at a height of 400 ft
Broken clouds at a height of 1000 ft
Becoming
from 20 at 12 UTC to 20 at 15 UTC
Visibility: 4000 m
Broken clouds at a height of 400 ft
mist
Probability 40%
from 20 at 12 UTC to 20 at 21 UTC
Visibility: 1400 m
Broken clouds at a height of 100 ft

TAF: EGPN 201053Z 2012/2021 05007KT 9999 SCT004 BKN010 BECMG 2012/2015 4000 BR BKN004 PROB40 2012/2021 1400 BKN001

Weather observations and forecasts of more than 4000 airports (METAR and TAF reports).

The available stations are represented by yellow and red dots on the map.

Hover mouse over dot to see the name of the station.

Then click to see weather observations and forecasts.

To change the map : click on the green buttons with a black cross to zoom in, on the green button with a dash to zoom out, or on the green arrows for adjacent maps.


METAR-TAF: